Terminal Aerodrome Forecast
Issued by NWS

Home | Current Version | Previous Version | Text Only | Print | Product List | Glossary On
Versions: 1 2 3 4 5 6 7 8 9 10 11 12 13 14 15 16 17 18 19 20 21 22 23 24 25
851
FTUS41 KBUF 170903 AAA
TAFIAG
TAF AMD
KIAG 170903Z 1709/1806 00000KT 6SM -RA OVC035
     FM171100 09010KT 5SM -RA OVC007
     FM171500 10011KT 2SM -RA OVC007
     FM172000 16005KT 2SM -RA OVC007
     FM172300 21008KT 3SM -RA OVC007
     FM180000 22010KT 5SM -SHRA OVC012=

USA.gov is the U.S. government's official web portal to all federal, state and local government web resources and services.